createdAt,value
2023-01-08T00:01:17.439Z,3.01
2023-01-08T00:03:44.475Z,2.86
2023-01-08T00:06:15.710Z,2.86
2023-01-08T00:08:43.146Z,2.95
2023-01-08T00:11:10.415Z,2.53
2023-01-08T00:13:37.366Z,2.52
2023-01-08T00:16:10.452Z,2.90
2023-01-08T00:18:37.555Z,2.48
2023-01-08T00:21:04.506Z,2.54
2023-01-08T00:23:31.308Z,2.69
2023-01-08T00:26:01.556Z,2.41
2023-01-08T00:28:28.500Z,2.84
2023-01-08T00:30:55.491Z,2.60
2023-01-08T00:33:22.178Z,2.79
2023-01-08T00:35:48.892Z,2.76
2023-01-08T00:38:15.775Z,2.55
2023-01-08T00:40:42.584Z,2.23
2023-01-08T00:43:09.442Z,2.56
2023-01-08T00:45:36.234Z,2.60
2023-01-08T00:48:06.465Z,2.68
2023-01-08T00:50:33.333Z,2.66
2023-01-08T00:53:00.910Z,2.47
2023-01-08T00:55:27.712Z,2.67
2023-01-08T00:57:54.621Z,2.54
2023-01-08T01:00:21.405Z,2.66
2023-01-08T01:02:48.094Z,2.66
2023-01-08T01:05:15.610Z,2.53
2023-01-08T01:07:46.416Z,2.52
2023-01-08T01:10:15.342Z,2.20
2023-01-08T01:12:42.712Z,2.47
2023-01-08T01:15:13.050Z,2.56
2023-01-08T01:17:40.930Z,2.50
2023-01-08T01:20:10.140Z,2.47
2023-01-08T01:22:37.109Z,2.35
2023-01-08T01:25:04.203Z,2.39
2023-01-08T01:27:30.958Z,2.47
2023-01-08T01:29:57.857Z,2.43
2023-01-08T01:32:24.742Z,1.92
2023-01-08T01:34:51.466Z,1.95
2023-01-08T01:37:18.337Z,2.34
2023-01-08T01:39:46.725Z,2.38
2023-01-08T01:42:39.316Z,2.46
2023-01-08T01:45:27.805Z,2.50
2023-01-08T01:48:02.453Z,2.09
2023-01-08T01:50:51.867Z,2.05
2023-01-08T01:53:27.457Z,2.10
2023-01-08T01:55:55.434Z,2.38
2023-01-08T01:58:27.922Z,2.41
2023-01-08T02:00:57.301Z,2.43
2023-01-08T02:03:26.833Z,2.26
2023-01-08T02:05:56.604Z,2.39
2023-01-08T02:08:45.705Z,2.14
2023-01-08T02:11:39.927Z,2.32
2023-01-08T02:14:17.581Z,2.28
2023-01-08T02:17:03.949Z,2.09
2023-01-08T02:19:50.140Z,2.17
2023-01-08T02:22:41.903Z,1.85
2023-01-08T02:25:08.688Z,2.17
2023-01-08T02:27:36.345Z,2.14
2023-01-08T02:30:05.675Z,1.70
2023-01-08T02:32:40.667Z,2.12
2023-01-08T02:35:09.520Z,2.11
2023-01-08T02:37:37.075Z,1.74
2023-01-08T02:40:11.569Z,2.05
2023-01-08T02:43:07.496Z,2.00
2023-01-08T02:45:49.598Z,1.61
2023-01-08T02:48:27.181Z,1.97
2023-01-08T02:51:19.451Z,2.03
2023-01-08T02:53:50.502Z,1.86
2023-01-08T02:56:29.121Z,1.90
2023-01-08T02:58:58.313Z,1.97
2023-01-08T03:01:26.317Z,1.91
2023-01-08T03:04:06.614Z,1.91
2023-01-08T03:06:33.880Z,1.72
2023-01-08T03:09:01.067Z,2.10
2023-01-08T03:11:35.356Z,2.11
2023-01-08T03:14:20.286Z,2.10
2023-01-08T03:16:58.058Z,1.97
2023-01-08T03:19:37.740Z,1.99
2023-01-08T03:22:10.388Z,1.84
2023-01-08T03:24:38.629Z,2.00
2023-01-08T03:27:09.587Z,1.87
2023-01-08T03:29:39.323Z,1.82
2023-01-08T03:32:13.929Z,1.96
2023-01-08T03:34:43.572Z,1.73
2023-01-08T03:37:13.989Z,1.61
2023-01-08T03:39:45.525Z,1.63
2023-01-08T03:42:16.308Z,1.66
2023-01-08T03:44:43.162Z,1.80
2023-01-08T03:47:11.354Z,1.82
2023-01-08T03:49:40.386Z,1.64
2023-01-08T03:52:07.355Z,1.83
2023-01-08T03:54:36.903Z,1.61
2023-01-08T03:57:03.619Z,1.37
2023-01-08T03:59:30.363Z,1.85
2023-01-08T04:01:57.157Z,1.73
2023-01-08T04:04:23.928Z,1.58
2023-01-08T04:06:52.409Z,1.66
2023-01-08T04:09:19.188Z,1.75
2023-01-08T04:11:45.853Z,1.59
2023-01-08T04:14:12.597Z,1.56
2023-01-08T04:16:39.279Z,1.60
2023-01-08T04:19:05.986Z,1.73
2023-01-08T04:21:32.729Z,1.39
2023-01-08T04:23:59.397Z,1.43
2023-01-08T04:26:26.061Z,1.54
2023-01-08T04:28:52.808Z,1.29
2023-01-08T04:31:19.637Z,1.45
2023-01-08T04:33:46.405Z,1.64
2023-01-08T04:36:13.099Z,1.58
2023-01-08T04:38:39.853Z,1.49
2023-01-08T04:41:06.633Z,1.59
2023-01-08T04:43:33.440Z,1.57
2023-01-08T04:46:07.641Z,1.79
2023-01-08T04:48:34.468Z,1.42
2023-01-08T04:51:02.826Z,1.73
2023-01-08T04:53:31.367Z,1.69
2023-01-08T04:56:04.551Z,1.55
2023-01-08T04:58:31.235Z,1.35
2023-01-08T05:00:57.911Z,1.66
2023-01-08T05:03:24.679Z,1.52
2023-01-08T05:05:51.385Z,1.47
2023-01-08T05:08:18.115Z,1.26
2023-01-08T05:10:44.722Z,1.64
2023-01-08T05:13:11.383Z,1.66
2023-01-08T05:15:38.037Z,1.58
2023-01-08T05:18:06.069Z,1.28
2023-01-08T05:20:33.995Z,1.30
2023-01-08T05:23:01.575Z,1.65
2023-01-08T05:25:28.293Z,1.59
2023-01-08T05:27:55.029Z,1.28
2023-01-08T05:30:21.675Z,1.53
2023-01-08T05:32:48.308Z,1.70
2023-01-08T05:35:15.038Z,1.55
2023-01-08T05:37:41.701Z,1.67
2023-01-08T05:40:09.000Z,1.40
2023-01-08T05:42:36.861Z,1.59
2023-01-08T05:45:05.126Z,1.67
2023-01-08T05:47:32.981Z,1.38
2023-01-08T05:49:59.809Z,1.54
2023-01-08T05:52:26.894Z,1.70
2023-01-08T05:54:55.791Z,1.65
2023-01-08T05:57:22.486Z,1.64
2023-01-08T05:59:49.179Z,1.74
2023-01-08T06:02:15.888Z,1.59
2023-01-08T06:04:42.678Z,1.23
2023-01-08T06:07:09.360Z,1.44
2023-01-08T06:09:35.998Z,1.36
2023-01-08T06:12:02.665Z,1.23
2023-01-08T06:14:29.324Z,1.16
2023-01-08T06:16:56.471Z,1.58
2023-01-08T06:19:23.180Z,1.63
2023-01-08T06:21:50.061Z,1.73
2023-01-08T06:24:16.809Z,1.44
2023-01-08T06:26:43.428Z,1.83
2023-01-08T06:29:10.100Z,1.79
2023-01-08T06:31:36.841Z,1.78
2023-01-08T06:34:03.717Z,1.83
2023-01-08T06:36:30.450Z,1.70
2023-01-08T06:38:57.115Z,1.52
2023-01-08T06:41:23.788Z,1.67
2023-01-08T06:43:50.516Z,1.53
2023-01-08T06:46:17.265Z,1.55
2023-01-08T06:48:44.078Z,1.62
2023-01-08T06:51:10.854Z,1.33
2023-01-08T06:53:44.016Z,1.40
2023-01-08T06:56:11.183Z,1.31
2023-01-08T06:58:39.425Z,1.38
2023-01-08T07:01:06.883Z,1.13
2023-01-08T07:03:33.655Z,1.39
2023-01-08T07:06:03.638Z,1.53
2023-01-08T07:08:30.351Z,1.49
2023-01-08T07:10:57.067Z,1.54
2023-01-08T07:13:24.459Z,1.53
2023-01-08T07:15:51.282Z,1.47
2023-01-08T07:18:18.011Z,1.50
2023-01-08T07:20:44.635Z,1.84
2023-01-08T07:23:12.060Z,1.76
2023-01-08T07:25:38.753Z,1.63
2023-01-08T07:28:05.842Z,1.78
2023-01-08T07:30:32.494Z,1.29
2023-01-08T07:33:00.589Z,1.62
2023-01-08T07:35:27.819Z,1.92
2023-01-08T07:37:54.972Z,1.75
2023-01-08T07:40:21.810Z,1.81
2023-01-08T07:42:48.489Z,1.83
2023-01-08T07:45:15.214Z,1.84
2023-01-08T07:47:41.889Z,1.66
2023-01-08T07:50:09.244Z,1.93
2023-01-08T07:52:35.876Z,1.63
2023-01-08T07:55:02.546Z,1.71
2023-01-08T07:57:29.774Z,1.89
2023-01-08T07:59:56.442Z,1.46
2023-01-08T08:02:23.225Z,1.75
2023-01-08T08:04:50.126Z,1.55
2023-01-08T08:07:16.819Z,1.78
2023-01-08T08:09:43.486Z,1.95
2023-01-08T08:12:10.146Z,1.81
2023-01-08T08:14:36.896Z,2.05
2023-01-08T08:17:03.612Z,1.73
2023-01-08T08:19:30.368Z,1.98
2023-01-08T08:21:57.030Z,2.07
2023-01-08T08:24:23.778Z,2.23
2023-01-08T08:26:51.589Z,1.75
2023-01-08T08:29:18.253Z,1.92
2023-01-08T08:31:44.923Z,2.40
2023-01-08T08:34:11.613Z,2.43
2023-01-08T08:36:38.406Z,2.39
2023-01-08T08:39:05.131Z,1.97
2023-01-08T08:41:31.848Z,2.17
2023-01-08T08:43:58.554Z,2.52
2023-01-08T08:46:26.158Z,2.43
2023-01-08T08:48:52.984Z,2.19
2023-01-08T08:51:19.635Z,2.09
2023-01-08T08:53:46.337Z,2.37
2023-01-08T08:56:14.464Z,2.61
2023-01-08T08:58:45.322Z,2.71
2023-01-08T09:01:12.197Z,2.71
2023-01-08T09:03:39.039Z,2.68
2023-01-08T09:06:06.173Z,2.77
2023-01-08T09:08:33.024Z,2.76
2023-01-08T09:10:59.652Z,2.84
2023-01-08T09:13:26.245Z,2.91
2023-01-08T09:15:52.927Z,2.92
2023-01-08T09:18:19.579Z,3.01
2023-01-08T09:20:48.550Z,3.05
2023-01-08T09:23:15.249Z,3.12
2023-01-08T09:25:41.879Z,3.16
2023-01-08T09:28:12.271Z,3.24
2023-01-08T09:30:39.819Z,3.31
2023-01-08T09:33:06.528Z,3.36
2023-01-08T09:35:33.866Z,3.42
2023-01-08T09:38:00.709Z,3.36
2023-01-08T09:40:54.223Z,3.55
2023-01-08T09:43:23.253Z,3.60
2023-01-08T09:45:54.399Z,3.70
2023-01-08T09:48:25.752Z,3.75
2023-01-08T09:50:52.395Z,3.80
2023-01-08T09:53:19.701Z,3.87
2023-01-08T09:56:08.993Z,3.94
2023-01-08T09:59:06.081Z,4.02
2023-01-08T10:01:38.314Z,4.08
2023-01-08T10:04:06.864Z,4.14
2023-01-08T10:06:34.080Z,4.22
2023-01-08T10:09:00.829Z,4.24
2023-01-08T10:11:41.513Z,4.30
2023-01-08T10:14:20.981Z,4.40
2023-01-08T10:16:50.807Z,4.48
2023-01-08T10:19:17.406Z,4.53
2023-01-08T10:21:44.114Z,4.65
2023-01-08T10:24:10.749Z,4.71
2023-01-08T10:26:38.792Z,4.77
2023-01-08T10:29:14.213Z,4.91
2023-01-08T10:31:50.540Z,5.06
2023-01-08T10:34:31.657Z,5.15
2023-01-08T10:36:58.374Z,5.16
2023-01-08T10:39:29.855Z,5.25
2023-01-08T10:42:03.745Z,5.25
2023-01-08T10:44:32.437Z,5.38
2023-01-08T10:47:01.113Z,5.39
2023-01-08T10:49:43.728Z,5.50
2023-01-08T10:52:31.731Z,5.61
2023-01-08T10:55:11.584Z,5.69
2023-01-08T10:57:42.033Z,5.85
2023-01-08T11:00:26.057Z,5.94
2023-01-08T11:02:52.841Z,6.06
2023-01-08T11:05:19.777Z,6.07
2023-01-08T11:07:55.444Z,6.21
2023-01-08T11:10:25.195Z,6.28
2023-01-08T11:13:01.351Z,6.30
2023-01-08T11:15:32.496Z,6.28
2023-01-08T11:18:22.176Z,6.48
2023-01-08T11:20:50.410Z,6.53
2023-01-08T11:23:20.933Z,6.56
2023-01-08T11:26:07.412Z,6.64
2023-01-08T11:29:02.519Z,6.71
2023-01-08T11:31:40.036Z,6.75
2023-01-08T11:34:16.533Z,6.80
2023-01-08T11:36:50.465Z,6.84
2023-01-08T11:39:18.597Z,6.89
2023-01-08T11:41:51.074Z,6.95
2023-01-08T11:44:41.850Z,7.00
2023-01-08T11:47:24.446Z,7.05
2023-01-08T11:50:25.189Z,7.12
2023-01-08T11:53:06.719Z,7.15
2023-01-08T11:55:43.243Z,7.20
2023-01-08T11:58:27.073Z,7.25
2023-01-08T12:01:29.721Z,7.29
2023-01-08T12:04:18.146Z,7.32
2023-01-08T12:06:59.195Z,7.38
2023-01-08T12:09:40.474Z,7.43
2023-01-08T12:12:33.007Z,7.47
2023-01-08T12:15:05.704Z,7.52
2023-01-08T12:17:57.276Z,7.56
2023-01-08T12:20:32.242Z,7.60
2023-01-08T12:23:22.584Z,7.64
2023-01-08T12:26:10.021Z,7.68
2023-01-08T12:28:58.143Z,7.71
2023-01-08T12:31:57.631Z,7.75
2023-01-08T12:34:43.433Z,7.73
2023-01-08T12:37:23.770Z,7.81
2023-01-08T12:39:57.387Z,7.82
2023-01-08T12:42:28.399Z,7.84
2023-01-08T12:44:57.392Z,7.86
2023-01-08T12:47:29.871Z,7.90
2023-01-08T12:49:56.404Z,7.96
2023-01-08T12:52:38.582Z,7.97
2023-01-08T12:55:26.385Z,8.02
2023-01-08T12:58:20.796Z,8.04
2023-01-08T13:01:01.046Z,8.08
2023-01-08T13:03:29.921Z,8.11
2023-01-08T13:06:09.021Z,8.14
2023-01-08T13:08:38.525Z,8.14
2023-01-08T13:11:06.323Z,8.16
2023-01-08T13:13:34.583Z,8.18
2023-01-08T13:16:19.782Z,8.20
2023-01-08T13:19:03.666Z,8.18
2023-01-08T13:21:43.529Z,8.18
2023-01-08T13:24:30.977Z,8.24
2023-01-08T13:27:29.574Z,8.25
2023-01-08T13:29:58.246Z,8.24
2023-01-08T13:32:42.135Z,8.26
2023-01-08T13:35:08.745Z,8.27
2023-01-08T13:37:35.408Z,8.27
2023-01-08T13:40:04.092Z,8.31
2023-01-08T13:42:31.563Z,8.27
2023-01-08T13:45:01.153Z,8.28
2023-01-08T13:47:36.070Z,8.32
2023-01-08T13:50:13.692Z,8.30
2023-01-08T13:52:50.158Z,8.35
2023-01-08T13:55:37.697Z,8.39
2023-01-08T13:58:26.290Z,8.39
2023-01-08T14:00:55.369Z,8.38
2023-01-08T14:03:29.136Z,8.40
2023-01-08T14:06:16.908Z,8.40
2023-01-08T14:08:49.481Z,8.38
2023-01-08T14:11:16.359Z,8.34
2023-01-08T14:13:43.296Z,8.36
2023-01-08T14:16:14.807Z,8.36
2023-01-08T14:18:43.204Z,8.38
2023-01-08T14:21:10.477Z,8.35
2023-01-08T14:23:44.996Z,8.38
2023-01-08T14:26:30.704Z,8.38
2023-01-08T14:28:57.733Z,8.34
2023-01-08T14:31:26.746Z,8.34
2023-01-08T14:33:55.523Z,8.32
2023-01-08T14:36:23.347Z,8.34
2023-01-08T14:38:52.867Z,8.35
2023-01-08T14:41:57.055Z,8.33
2023-01-08T14:44:36.615Z,8.36
2023-01-08T14:47:05.409Z,8.39
2023-01-08T14:49:40.846Z,8.34
2023-01-08T14:52:12.490Z,8.34
2023-01-08T14:54:39.747Z,8.32
2023-01-08T14:57:06.631Z,8.20
2023-01-08T14:59:37.882Z,8.32
2023-01-08T15:02:13.877Z,8.32
2023-01-08T15:04:40.638Z,8.31
2023-01-08T15:07:16.429Z,8.36
2023-01-08T15:09:43.122Z,8.33
2023-01-08T15:12:24.633Z,8.37
2023-01-08T15:14:51.327Z,8.35
2023-01-08T15:17:23.868Z,8.36
2023-01-08T15:19:56.480Z,8.37
2023-01-08T15:22:26.082Z,8.34
2023-01-08T15:25:02.302Z,8.34
2023-01-08T15:27:31.557Z,8.35
2023-01-08T15:30:04.110Z,8.32
2023-01-08T15:32:37.218Z,8.29
2023-01-08T15:35:15.720Z,8.30
2023-01-08T15:37:42.520Z,8.29
2023-01-08T15:40:11.270Z,8.29
2023-01-08T15:42:56.604Z,8.27
2023-01-08T15:45:28.647Z,8.26
2023-01-08T15:47:55.612Z,8.25
2023-01-08T15:50:23.373Z,8.20
2023-01-08T15:52:50.129Z,8.20
2023-01-08T15:55:22.171Z,8.17
2023-01-08T15:57:49.394Z,8.08
2023-01-08T16:00:17.768Z,8.08
2023-01-08T16:02:49.931Z,8.08
2023-01-08T16:05:18.156Z,8.05
2023-01-08T16:07:46.346Z,8.00
2023-01-08T16:10:17.577Z,7.95
2023-01-08T16:12:44.564Z,7.92
2023-01-08T16:15:12.294Z,7.91
2023-01-08T16:17:39.417Z,7.90
2023-01-08T16:20:07.891Z,7.92
2023-01-08T16:22:34.770Z,7.91
2023-01-08T16:25:01.471Z,7.90
2023-01-08T16:27:28.240Z,7.88
2023-01-08T16:29:54.953Z,7.86
2023-01-08T16:32:21.642Z,7.87
2023-01-08T16:34:48.500Z,7.87
2023-01-08T16:37:15.235Z,7.81
2023-01-08T16:39:41.900Z,7.83
2023-01-08T16:42:09.800Z,7.81
2023-01-08T16:44:36.793Z,7.78
2023-01-08T16:47:03.523Z,7.74
2023-01-08T16:49:32.424Z,7.68
2023-01-08T16:51:59.579Z,7.60
2023-01-08T16:54:27.433Z,7.54
2023-01-08T16:56:54.546Z,7.57
2023-01-08T16:59:23.801Z,7.53
2023-01-08T17:01:52.099Z,7.52
2023-01-08T17:04:19.277Z,7.51
2023-01-08T17:06:47.027Z,7.48
2023-01-08T17:09:14.756Z,7.45
2023-01-08T17:11:42.072Z,7.41
2023-01-08T17:14:08.903Z,7.38
2023-01-08T17:16:35.661Z,7.35
2023-01-08T17:19:02.540Z,7.30
2023-01-08T17:21:29.180Z,7.29
2023-01-08T17:23:55.888Z,7.25
2023-01-08T17:26:22.544Z,7.22
2023-01-08T17:28:49.279Z,7.21
2023-01-08T17:31:21.266Z,7.20
2023-01-08T17:33:50.439Z,7.19
2023-01-08T17:36:20.036Z,7.15
2023-01-08T17:38:47.235Z,7.14
2023-01-08T17:41:36.550Z,7.12
2023-01-08T17:44:06.862Z,7.14
2023-01-08T17:46:38.197Z,7.13
2023-01-08T17:49:05.531Z,7.14
2023-01-08T17:51:33.543Z,7.05
2023-01-08T17:54:01.012Z,7.07
2023-01-08T17:56:28.043Z,7.08
2023-01-08T17:58:54.827Z,7.06
2023-01-08T18:01:21.640Z,7.07
2023-01-08T18:03:48.373Z,7.02
2023-01-08T18:06:15.364Z,6.97
2023-01-08T18:08:42.034Z,6.97
2023-01-08T18:11:10.149Z,6.95
2023-01-08T18:13:37.953Z,6.95
2023-01-08T18:16:10.948Z,6.93
2023-01-08T18:18:38.826Z,6.91
2023-01-08T18:21:05.984Z,6.89
2023-01-08T18:23:33.246Z,6.87
2023-01-08T18:26:07.510Z,6.85
2023-01-08T18:28:34.349Z,6.84
2023-01-08T18:31:01.432Z,6.82
2023-01-08T18:33:28.067Z,6.78
2023-01-08T18:35:54.734Z,6.74
2023-01-08T18:38:21.921Z,6.78
2023-01-08T18:40:48.696Z,6.76
2023-01-08T18:43:15.427Z,6.71
2023-01-08T18:45:42.150Z,6.69
2023-01-08T18:48:12.207Z,6.71
2023-01-08T18:50:40.511Z,6.67
2023-01-08T18:53:09.241Z,6.62
2023-01-08T18:55:37.628Z,6.61
2023-01-08T18:58:04.865Z,6.60
2023-01-08T19:00:32.061Z,6.56
2023-01-08T19:02:58.808Z,6.58
2023-01-08T19:05:26.019Z,6.57
2023-01-08T19:07:52.787Z,6.57
2023-01-08T19:10:20.074Z,6.55
2023-01-08T19:12:46.760Z,6.58
2023-01-08T19:15:13.810Z,6.51
2023-01-08T19:17:40.734Z,6.56
2023-01-08T19:20:08.395Z,6.55
2023-01-08T19:22:35.028Z,6.52
2023-01-08T19:25:01.843Z,6.49
2023-01-08T19:27:28.567Z,6.40
2023-01-08T19:29:55.328Z,6.44
2023-01-08T19:32:22.078Z,6.41
2023-01-08T19:34:48.783Z,6.39
2023-01-08T19:37:15.476Z,6.36
2023-01-08T19:39:42.202Z,6.35
2023-01-08T19:42:29.649Z,6.37
2023-01-08T19:44:56.888Z,6.34
2023-01-08T19:47:23.834Z,6.32
2023-01-08T19:49:50.684Z,6.32
2023-01-08T19:52:18.390Z,6.30
2023-01-08T19:54:45.944Z,6.27
2023-01-08T19:57:12.942Z,6.21
2023-01-08T19:59:39.633Z,6.14
2023-01-08T20:02:06.503Z,6.12
2023-01-08T20:04:36.657Z,6.05
2023-01-08T20:07:03.416Z,6.01
2023-01-08T20:09:31.589Z,5.99
2023-01-08T20:11:58.278Z,5.94
2023-01-08T20:14:24.913Z,5.89
2023-01-08T20:16:51.560Z,5.86
2023-01-08T20:19:18.241Z,5.82
2023-01-08T20:21:44.911Z,5.81
2023-01-08T20:24:14.406Z,5.77
2023-01-08T20:26:44.093Z,5.74
2023-01-08T20:29:12.111Z,5.74
2023-01-08T20:31:40.138Z,5.72
2023-01-08T20:34:12.001Z,5.63
2023-01-08T20:36:38.851Z,5.74
2023-01-08T20:39:09.425Z,5.66
2023-01-08T20:41:36.169Z,5.59
2023-01-08T20:44:06.722Z,5.68
2023-01-08T20:46:34.686Z,5.55
2023-01-08T20:49:04.057Z,5.73
2023-01-08T20:51:32.360Z,5.30
2023-01-08T20:54:00.860Z,5.63
2023-01-08T20:56:28.158Z,5.65
2023-01-08T20:58:57.457Z,5.58
2023-01-08T21:01:28.112Z,5.61
2023-01-08T21:03:56.456Z,5.56
2023-01-08T21:06:25.786Z,5.41
2023-01-08T21:08:54.876Z,5.57
2023-01-08T21:11:22.419Z,5.52
2023-01-08T21:13:49.525Z,5.55
2023-01-08T21:16:20.360Z,5.44
2023-01-08T21:18:49.289Z,5.44
2023-01-08T21:21:21.713Z,5.43
2023-01-08T21:23:48.826Z,5.57
2023-01-08T21:26:16.983Z,5.58
2023-01-08T21:28:44.399Z,5.58
2023-01-08T21:31:12.469Z,5.52
2023-01-08T21:33:40.098Z,5.60
2023-01-08T21:36:13.411Z,5.59
2023-01-08T21:38:40.950Z,5.59
2023-01-08T21:41:33.759Z,5.67
2023-01-08T21:44:19.792Z,5.63
2023-01-08T21:46:47.096Z,5.69
2023-01-08T21:49:13.804Z,5.49
2023-01-08T21:51:59.822Z,5.58
2023-01-08T21:54:26.590Z,5.66
2023-01-08T21:56:53.278Z,5.63
2023-01-08T21:59:19.963Z,5.44
2023-01-08T22:01:46.678Z,5.55
2023-01-08T22:04:13.415Z,5.55
2023-01-08T22:06:40.233Z,5.65
2023-01-08T22:09:06.881Z,5.45
2023-01-08T22:11:34.576Z,5.50
2023-01-08T22:14:01.556Z,5.40
2023-01-08T22:16:28.363Z,5.38
2023-01-08T22:18:55.096Z,5.37
2023-01-08T22:21:21.874Z,5.28
2023-01-08T22:23:48.557Z,5.36
2023-01-08T22:26:15.649Z,5.30
2023-01-08T22:28:42.353Z,5.44
2023-01-08T22:31:11.905Z,5.54
2023-01-08T22:33:39.906Z,5.19
2023-01-08T22:36:09.745Z,5.44
2023-01-08T22:38:37.421Z,5.25
2023-01-08T22:41:04.825Z,5.32
2023-01-08T22:43:31.511Z,5.05
2023-01-08T22:45:59.928Z,5.38
2023-01-08T22:48:27.799Z,5.39
2023-01-08T22:50:54.514Z,5.19
2023-01-08T22:53:21.176Z,5.29
2023-01-08T22:55:48.593Z,5.47
2023-01-08T22:58:16.739Z,5.49
2023-01-08T23:00:44.112Z,5.36
2023-01-08T23:03:11.465Z,5.46
2023-01-08T23:05:38.266Z,5.31
2023-01-08T23:08:07.554Z,5.51
2023-01-08T23:10:34.886Z,5.52
2023-01-08T23:13:01.773Z,5.34
2023-01-08T23:15:28.569Z,5.01
2023-01-08T23:17:55.234Z,5.48
2023-01-08T23:20:23.329Z,5.39
2023-01-08T23:22:50.185Z,5.44
2023-01-08T23:25:17.008Z,5.38
2023-01-08T23:27:44.914Z,5.37
2023-01-08T23:30:12.268Z,5.45
2023-01-08T23:32:39.934Z,5.46
2023-01-08T23:35:06.957Z,5.57
2023-01-08T23:37:34.424Z,5.65
2023-01-08T23:40:01.172Z,5.40
2023-01-08T23:42:29.484Z,5.55
2023-01-08T23:44:56.499Z,5.63
2023-01-08T23:47:23.254Z,5.76
2023-01-08T23:49:49.973Z,5.69
2023-01-08T23:52:16.776Z,5.79
2023-01-08T23:54:43.514Z,5.75
2023-01-08T23:57:10.192Z,5.75
2023-01-08T23:59:36.964Z,5.80
